createdAt,value
2023-03-25T00:00:17.458Z,97693.69
2023-03-25T00:02:49.288Z,97703.69
2023-03-25T00:05:19.193Z,97708.50
2023-03-25T00:07:48.315Z,97704.41
2023-03-25T00:10:15.522Z,97699.13
2023-03-25T00:12:45.318Z,97714.81
2023-03-25T00:15:12.944Z,97718.38
2023-03-25T00:17:39.699Z,97722.25
2023-03-25T00:20:11.598Z,97721.81
2023-03-25T00:22:42.059Z,97726.72
2023-03-25T00:25:10.984Z,97724.19
2023-03-25T00:27:38.305Z,97737.75
2023-03-25T00:30:05.635Z,97730.03
2023-03-25T00:32:33.074Z,97712.22
2023-03-25T00:34:59.812Z,97705.09
2023-03-25T00:37:27.145Z,97697.88
2023-03-25T00:39:54.139Z,97674.50
2023-03-25T00:42:26.397Z,97685.19
2023-03-25T00:44:53.931Z,97682.97
2023-03-25T00:47:22.823Z,97683.56
2023-03-25T00:49:50.691Z,97685.75
2023-03-25T00:52:18.285Z,97690.19
2023-03-25T00:54:45.855Z,97693.28
2023-03-25T00:57:12.727Z,97697.56
2023-03-25T00:59:39.508Z,97701.84
2023-03-25T01:02:07.076Z,97709.25
2023-03-25T01:04:34.983Z,97702.50
2023-03-25T01:07:03.340Z,97697.53
2023-03-25T01:09:31.120Z,97702.63
2023-03-25T01:11:58.640Z,97697.53
2023-03-25T01:14:27.597Z,97686.28
2023-03-25T01:16:54.823Z,97689.59
2023-03-25T01:19:22.911Z,97683.03
2023-03-25T01:21:49.766Z,97681.66
2023-03-25T01:24:16.719Z,97687.88
2023-03-25T01:26:45.809Z,97686.78
2023-03-25T01:29:15.470Z,97685.28
2023-03-25T01:31:42.446Z,97682.53
2023-03-25T01:34:10.708Z,97682.78
2023-03-25T01:36:39.724Z,97685.19
2023-03-25T01:39:08.479Z,97690.84
2023-03-25T01:41:46.851Z,97700.47
2023-03-25T01:44:19.242Z,97709.03
2023-03-25T01:46:49.274Z,97709.56
2023-03-25T01:49:30.057Z,97709.72
2023-03-25T01:52:03.091Z,97710.22
2023-03-25T01:54:30.765Z,97726.97
2023-03-25T01:56:58.082Z,97720.91
2023-03-25T01:59:28.128Z,97727.19
2023-03-25T02:02:02.397Z,97721.78
2023-03-25T02:04:39.047Z,97723.47
2023-03-25T02:07:08.656Z,97734.03
2023-03-25T02:09:36.462Z,97722.31
2023-03-25T02:12:06.562Z,97725.22
2023-03-25T02:14:36.828Z,97741.16
2023-03-25T02:17:40.206Z,97724.50
2023-03-25T02:20:16.162Z,97713.41
2023-03-25T02:22:49.841Z,97725.38
2023-03-25T02:25:35.502Z,97731.03
2023-03-25T02:28:35.707Z,97718.56
2023-03-25T02:31:39.240Z,97718.03
2023-03-25T02:34:15.328Z,97726.06
2023-03-25T02:37:11.576Z,97726.13
2023-03-25T02:40:11.706Z,97719.44
2023-03-25T02:42:47.227Z,97707.78
2023-03-25T02:45:37.903Z,97713.53
2023-03-25T02:48:15.793Z,97707.28
2023-03-25T02:50:48.682Z,97704.63
2023-03-25T02:53:22.851Z,97698.00
2023-03-25T02:55:52.905Z,97700.34
2023-03-25T02:58:21.708Z,97708.03
2023-03-25T03:00:50.406Z,97695.50
2023-03-25T03:03:17.533Z,97699.22
2023-03-25T03:05:47.947Z,97695.59
2023-03-25T03:08:35.470Z,97697.19
2023-03-25T03:11:39.896Z,97692.31
2023-03-25T03:14:18.794Z,97694.47
2023-03-25T03:17:20.197Z,97711.47
2023-03-25T03:19:56.912Z,97696.28
2023-03-25T03:22:30.095Z,97697.22
2023-03-25T03:25:01.920Z,97695.94
2023-03-25T03:27:43.004Z,97697.56
2023-03-25T03:30:15.889Z,97705.44
2023-03-25T03:33:04.866Z,97688.34
2023-03-25T03:35:38.339Z,97696.84
2023-03-25T03:38:11.387Z,97704.56
2023-03-25T03:40:44.614Z,97699.94
2023-03-25T03:43:19.749Z,97705.63
2023-03-25T03:45:51.759Z,97739.56
2023-03-25T03:48:42.428Z,97732.28
2023-03-25T03:51:18.439Z,97739.31
2023-03-25T03:53:58.240Z,97743.53
2023-03-25T03:56:32.242Z,97742.88
2023-03-25T03:59:02.382Z,97733.88
2023-03-25T04:01:45.926Z,97723.19
2023-03-25T04:04:23.837Z,97727.91
2023-03-25T04:07:15.206Z,97730.47
2023-03-25T04:10:06.155Z,97738.50
2023-03-25T04:12:38.678Z,97752.09
2023-03-25T04:15:06.721Z,97747.78
2023-03-25T04:17:33.428Z,97749.50
2023-03-25T04:20:01.592Z,97746.19
2023-03-25T04:22:28.319Z,97740.03
2023-03-25T04:24:56.122Z,97741.69
2023-03-25T04:27:29.843Z,97744.19
2023-03-25T04:29:57.635Z,97744.19
2023-03-25T04:32:27.766Z,97746.00
2023-03-25T04:34:57.795Z,97742.72
2023-03-25T04:37:25.707Z,97738.75
2023-03-25T04:39:53.903Z,97743.16
2023-03-25T04:42:20.744Z,97731.59
2023-03-25T04:44:47.491Z,97730.63
2023-03-25T04:47:16.316Z,97732.03
2023-03-25T04:49:45.122Z,97732.88
2023-03-25T04:52:12.240Z,97736.13
2023-03-25T04:54:40.156Z,97742.88
2023-03-25T04:57:10.156Z,97741.63
2023-03-25T04:59:37.247Z,97741.38
2023-03-25T05:02:13.194Z,97739.84
2023-03-25T05:04:47.249Z,97739.34
2023-03-25T05:07:16.477Z,97747.75
2023-03-25T05:09:43.427Z,97746.16
2023-03-25T05:12:11.386Z,97756.78
2023-03-25T05:14:38.357Z,97739.72
2023-03-25T05:17:05.144Z,97760.78
2023-03-25T05:19:34.933Z,97756.56
2023-03-25T05:22:04.478Z,97745.63
2023-03-25T05:24:31.303Z,97764.44
2023-03-25T05:26:57.925Z,97757.66
2023-03-25T05:29:24.598Z,97765.16
2023-03-25T05:31:51.391Z,97763.06
2023-03-25T05:34:18.255Z,97767.47
2023-03-25T05:36:45.218Z,97750.13
2023-03-25T05:39:12.278Z,97788.66
2023-03-25T05:41:39.362Z,97758.53
2023-03-25T05:44:07.862Z,97760.44
2023-03-25T05:46:34.951Z,97763.78
2023-03-25T05:49:01.928Z,97762.44
2023-03-25T05:51:33.557Z,97770.41
2023-03-25T05:54:01.600Z,97770.34
2023-03-25T05:56:29.295Z,97758.06
2023-03-25T05:58:57.430Z,97766.00
2023-03-25T06:01:32.707Z,97760.03
2023-03-25T06:04:01.552Z,97762.50
2023-03-25T06:06:29.218Z,97759.38
2023-03-25T06:08:56.012Z,97764.56
2023-03-25T06:11:22.690Z,97766.22
2023-03-25T06:13:52.528Z,97760.69
2023-03-25T06:16:21.825Z,97754.63
2023-03-25T06:18:51.118Z,97762.56
2023-03-25T06:21:20.694Z,97770.72
2023-03-25T06:23:50.679Z,97754.34
2023-03-25T06:26:18.427Z,97771.53
2023-03-25T06:28:45.970Z,97761.91
2023-03-25T06:31:17.625Z,97751.72
2023-03-25T06:33:46.136Z,97749.91
2023-03-25T06:36:20.909Z,97748.97
2023-03-25T06:38:50.444Z,97748.50
2023-03-25T06:41:20.446Z,97746.97
2023-03-25T06:43:53.693Z,97746.19
2023-03-25T06:46:39.208Z,97734.16
2023-03-25T06:49:12.180Z,97741.28
2023-03-25T06:51:38.940Z,97748.09
2023-03-25T06:54:05.682Z,97735.53
2023-03-25T06:56:32.792Z,97737.41
2023-03-25T06:58:59.440Z,97739.56
2023-03-25T07:01:26.195Z,97737.50
2023-03-25T07:03:52.857Z,97734.03
2023-03-25T07:06:22.400Z,97720.94
2023-03-25T07:08:49.632Z,97724.25
2023-03-25T07:11:19.898Z,97723.25
2023-03-25T07:13:46.590Z,97728.81
2023-03-25T07:16:14.639Z,97730.06
2023-03-25T07:18:41.454Z,97740.91
2023-03-25T07:21:08.136Z,97732.41
2023-03-25T07:23:34.826Z,97731.50
2023-03-25T07:26:01.505Z,97735.31
2023-03-25T07:28:28.128Z,97726.88
2023-03-25T07:30:54.926Z,97733.78
2023-03-25T07:33:21.801Z,97733.34
2023-03-25T07:35:48.758Z,97739.19
2023-03-25T07:38:15.586Z,97722.59
2023-03-25T07:40:42.472Z,97724.72
2023-03-25T07:43:09.075Z,97730.47
2023-03-25T07:46:05.021Z,97731.53
2023-03-25T07:48:32.032Z,97743.34
2023-03-25T07:50:58.845Z,97733.06
2023-03-25T07:53:25.517Z,97737.66
2023-03-25T07:55:52.501Z,97742.00
2023-03-25T07:58:19.696Z,97750.22
2023-03-25T08:00:46.363Z,97740.88
2023-03-25T08:03:13.834Z,97744.47
2023-03-25T08:05:47.836Z,97748.00
2023-03-25T08:08:15.370Z,97748.88
2023-03-25T08:10:43.832Z,97731.63
2023-03-25T08:13:10.797Z,97744.88
2023-03-25T08:15:37.815Z,97728.72
2023-03-25T08:18:06.388Z,97739.03
2023-03-25T08:20:36.323Z,97750.09
2023-03-25T08:23:03.224Z,97746.81
2023-03-25T08:25:31.035Z,97750.00
2023-03-25T08:27:57.860Z,97756.63
2023-03-25T08:30:24.635Z,97754.53
2023-03-25T08:32:54.626Z,97754.56
2023-03-25T08:35:23.678Z,97766.78
2023-03-25T08:37:51.494Z,97771.59
2023-03-25T08:40:18.484Z,97770.97
2023-03-25T08:42:46.466Z,97781.16
2023-03-25T08:45:15.229Z,97762.69
2023-03-25T08:47:43.754Z,97767.47
2023-03-25T08:50:10.696Z,97759.81
2023-03-25T08:52:37.404Z,97768.25
2023-03-25T08:55:08.700Z,97767.63
2023-03-25T08:57:37.735Z,97779.38
2023-03-25T09:00:14.560Z,97783.88
2023-03-25T09:02:42.387Z,97779.00
2023-03-25T09:05:10.762Z,97765.53
2023-03-25T09:07:39.024Z,97761.06
2023-03-25T09:10:06.497Z,97763.16
2023-03-25T09:12:33.685Z,97767.75
2023-03-25T09:15:00.400Z,97769.25
2023-03-25T09:17:27.423Z,97764.34
2023-03-25T09:19:55.447Z,97762.63
2023-03-25T09:22:23.080Z,97751.44
2023-03-25T09:24:49.690Z,97756.91
2023-03-25T09:27:16.378Z,97745.66
2023-03-25T09:29:43.056Z,97758.63
2023-03-25T09:32:09.882Z,97781.28
2023-03-25T09:34:38.081Z,97766.34
2023-03-25T09:37:05.325Z,97771.34
2023-03-25T09:39:32.083Z,97785.81
2023-03-25T09:42:12.437Z,97788.94
2023-03-25T09:44:54.584Z,97793.06
2023-03-25T09:47:23.609Z,97781.25
2023-03-25T09:49:55.399Z,97798.00
2023-03-25T09:52:33.157Z,97785.00
2023-03-25T09:55:05.888Z,97790.81
2023-03-25T09:57:45.883Z,97796.03
2023-03-25T10:00:19.078Z,97806.06
2023-03-25T10:02:45.784Z,97805.28
2023-03-25T10:05:39.827Z,97834.88
2023-03-25T10:08:26.335Z,97845.34
2023-03-25T10:11:05.053Z,97855.00
2023-03-25T10:13:56.446Z,97852.25
2023-03-25T10:16:33.753Z,97855.81
2023-03-25T10:19:21.482Z,97846.19
2023-03-25T10:21:52.554Z,97849.88
2023-03-25T10:24:44.241Z,97836.50
2023-03-25T10:27:22.117Z,97845.50
2023-03-25T10:30:00.726Z,97835.53
2023-03-25T10:32:38.398Z,97837.94
2023-03-25T10:35:09.430Z,97848.72
2023-03-25T10:37:41.894Z,97844.72
2023-03-25T10:40:15.489Z,97848.50
2023-03-25T10:43:05.281Z,97844.53
2023-03-25T10:45:34.064Z,97844.81
2023-03-25T10:48:28.605Z,97820.69
2023-03-25T10:51:19.940Z,97829.56
2023-03-25T10:53:52.961Z,97837.94
2023-03-25T10:56:31.293Z,97836.19
2023-03-25T10:59:03.129Z,97853.91
2023-03-25T11:01:41.364Z,97869.69
2023-03-25T11:04:12.831Z,97891.13
2023-03-25T11:06:42.209Z,97859.50
2023-03-25T11:09:19.283Z,97867.75
2023-03-25T11:11:47.233Z,97843.94
2023-03-25T11:14:13.910Z,97835.31
2023-03-25T11:16:52.332Z,97813.47
2023-03-25T11:19:42.091Z,97798.31
2023-03-25T11:22:18.637Z,97799.84
2023-03-25T11:24:50.568Z,97790.66
2023-03-25T11:27:22.526Z,97797.47
2023-03-25T11:29:55.581Z,97812.31
2023-03-25T11:32:38.477Z,97837.22
2023-03-25T11:35:27.350Z,97827.13
2023-03-25T11:37:57.551Z,97815.19
2023-03-25T11:40:25.633Z,97807.16
2023-03-25T11:42:55.740Z,97793.59
2023-03-25T11:45:27.637Z,97811.00
2023-03-25T11:47:59.966Z,97833.03
2023-03-25T11:50:29.432Z,97835.59
2023-03-25T11:53:00.230Z,97844.25
2023-03-25T11:55:30.635Z,97825.44
2023-03-25T11:58:00.418Z,97807.31
2023-03-25T12:00:27.478Z,97800.66
2023-03-25T12:03:16.258Z,97777.09
2023-03-25T12:06:00.380Z,97775.09
2023-03-25T12:08:42.564Z,97780.22
2023-03-25T12:11:48.186Z,97800.13
2023-03-25T12:14:30.320Z,97792.91
2023-03-25T12:17:11.795Z,97811.00
2023-03-25T12:19:56.468Z,97800.81
2023-03-25T12:22:47.728Z,97786.19
2023-03-25T12:25:23.605Z,97798.09
2023-03-25T12:28:06.176Z,97794.84
2023-03-25T12:30:51.785Z,97776.13
2023-03-25T12:33:41.975Z,97790.78
2023-03-25T12:36:48.074Z,97777.69
2023-03-25T12:39:32.281Z,97780.84
2023-03-25T12:42:51.572Z,97812.53
2023-03-25T12:45:50.880Z,97791.66
2023-03-25T12:48:35.719Z,97792.50
2023-03-25T12:51:28.490Z,97787.44
2023-03-25T12:54:37.047Z,97790.16
2023-03-25T12:57:22.640Z,97801.94
2023-03-25T13:00:20.184Z,97796.34
2023-03-25T13:03:05.119Z,97809.06
2023-03-25T13:05:44.896Z,97806.06
2023-03-25T13:08:22.255Z,97801.47
2023-03-25T13:10:58.288Z,97790.69
2023-03-25T13:13:28.449Z,97797.50
2023-03-25T13:16:23.668Z,97799.75
2023-03-25T13:18:53.490Z,97795.13
2023-03-25T13:21:24.543Z,97786.88
2023-03-25T13:24:10.974Z,97772.84
2023-03-25T13:26:42.763Z,97765.81
2023-03-25T13:29:36.549Z,97758.25
2023-03-25T13:32:10.016Z,97766.78
2023-03-25T13:34:50.051Z,97763.09
2023-03-25T13:37:23.271Z,97753.81
2023-03-25T13:39:56.360Z,97748.19
2023-03-25T13:42:31.681Z,97741.34
2023-03-25T13:44:59.197Z,97743.97
2023-03-25T13:47:33.813Z,97755.91
2023-03-25T13:50:05.922Z,97754.53
2023-03-25T13:52:39.768Z,97746.59
2023-03-25T13:55:16.907Z,97748.38
2023-03-25T13:58:18.448Z,97744.19
2023-03-25T14:01:00.532Z,97745.13
2023-03-25T14:03:58.522Z,97742.94
2023-03-25T14:07:03.394Z,97733.75
2023-03-25T14:09:48.625Z,97739.94
2023-03-25T14:12:37.598Z,97732.13
2023-03-25T14:15:15.238Z,97741.69
2023-03-25T14:17:46.735Z,97753.53
2023-03-25T14:20:24.460Z,97749.81
2023-03-25T14:22:57.330Z,97762.84
2023-03-25T14:25:57.388Z,97764.56
2023-03-25T14:28:40.985Z,97777.72
2023-03-25T14:31:13.760Z,97786.97
2023-03-25T14:34:02.193Z,97782.97
2023-03-25T14:36:31.332Z,97771.16
2023-03-25T14:38:59.570Z,97762.38
2023-03-25T14:42:00.463Z,97769.56
2023-03-25T14:44:32.693Z,97757.69
2023-03-25T14:47:25.564Z,97759.25
2023-03-25T14:50:20.542Z,97776.94
2023-03-25T14:52:54.849Z,97773.63
2023-03-25T14:55:30.973Z,97755.88
2023-03-25T14:58:27.662Z,97758.91
2023-03-25T15:01:06.134Z,97762.44
2023-03-25T15:03:44.009Z,97768.88
2023-03-25T15:06:16.417Z,97768.41
2023-03-25T15:08:53.938Z,97763.72
2023-03-25T15:11:33.492Z,97762.38
2023-03-25T15:14:07.702Z,97760.47
2023-03-25T15:16:54.565Z,97770.41
2023-03-25T15:19:23.144Z,97779.09
2023-03-25T15:22:00.306Z,97784.78
2023-03-25T15:24:35.419Z,97779.28
2023-03-25T15:27:09.986Z,97800.16
2023-03-25T15:29:53.089Z,97795.53
2023-03-25T15:32:26.215Z,97806.75
2023-03-25T15:35:23.009Z,97800.13
2023-03-25T15:38:04.869Z,97800.78
2023-03-25T15:40:51.966Z,97801.91
2023-03-25T15:44:00.664Z,97802.28
2023-03-25T15:46:50.098Z,97805.75
2023-03-25T15:49:53.991Z,97798.91
2023-03-25T15:52:48.563Z,97800.00
2023-03-25T15:55:39.503Z,97794.50
2023-03-25T15:58:13.924Z,97788.00
2023-03-25T16:00:52.130Z,97782.66
2023-03-25T16:03:27.047Z,97790.34
2023-03-25T16:06:00.583Z,97803.44
2023-03-25T16:08:32.711Z,97802.63
2023-03-25T16:11:20.983Z,97800.69
2023-03-25T16:14:00.904Z,97789.06
2023-03-25T16:16:29.502Z,97792.78
2023-03-25T16:18:56.508Z,97799.22
2023-03-25T16:21:23.145Z,97790.66
2023-03-25T16:23:53.234Z,97787.41
2023-03-25T16:26:36.551Z,97789.16
2023-03-25T16:29:13.292Z,97797.03
2023-03-25T16:31:42.868Z,97800.56
2023-03-25T16:34:15.242Z,97808.16
2023-03-25T16:36:52.649Z,97813.97
2023-03-25T16:39:21.376Z,97840.38
2023-03-25T16:41:49.997Z,97888.84
2023-03-25T16:44:22.640Z,97912.00
2023-03-25T16:46:52.305Z,97901.28
2023-03-25T16:49:38.276Z,97897.66
2023-03-25T16:52:14.174Z,97886.81
2023-03-25T16:54:47.299Z,97870.84
2023-03-25T16:57:20.218Z,97877.75
2023-03-25T16:59:47.632Z,97878.59
2023-03-25T17:02:26.348Z,97882.31
2023-03-25T17:04:55.864Z,97878.28
2023-03-25T17:07:28.288Z,97879.69
2023-03-25T17:09:58.133Z,97875.72
2023-03-25T17:12:27.313Z,97883.88
2023-03-25T17:15:06.854Z,97873.84
2023-03-25T17:17:41.992Z,97879.72
2023-03-25T17:20:17.981Z,97877.03
2023-03-25T17:22:59.466Z,97876.25
2023-03-25T17:25:34.992Z,97879.22
2023-03-25T17:28:39.339Z,97879.41
2023-03-25T17:31:25.082Z,97883.38
2023-03-25T17:34:06.337Z,97892.78
2023-03-25T17:36:36.284Z,97894.53
2023-03-25T17:39:06.352Z,97891.59
2023-03-25T17:41:38.483Z,97891.59
2023-03-25T17:44:06.234Z,97887.78
2023-03-25T17:46:35.028Z,97894.91
2023-03-25T17:49:02.004Z,97902.09
2023-03-25T17:51:30.633Z,97898.50
2023-03-25T17:53:57.645Z,97906.53
2023-03-25T17:56:27.823Z,97913.72
2023-03-25T17:59:00.246Z,97936.22
2023-03-25T18:01:28.014Z,97958.38
2023-03-25T18:03:54.997Z,97951.94
2023-03-25T18:06:22.490Z,97962.81
2023-03-25T18:08:49.489Z,97961.56
2023-03-25T18:11:16.316Z,97939.00
2023-03-25T18:13:48.029Z,97930.75
2023-03-25T18:16:21.068Z,97931.63
2023-03-25T18:18:48.430Z,97932.91
2023-03-25T18:21:16.870Z,97934.31
2023-03-25T18:23:47.630Z,97934.56
2023-03-25T18:26:18.798Z,97939.00
2023-03-25T18:28:46.273Z,97949.69
2023-03-25T18:31:18.480Z,97958.06
2023-03-25T18:33:48.236Z,97957.84
2023-03-25T18:36:15.418Z,97965.94
2023-03-25T18:38:43.487Z,97965.81
2023-03-25T18:41:11.633Z,97969.19
2023-03-25T18:43:38.279Z,97973.72
2023-03-25T18:46:05.206Z,97972.66
2023-03-25T18:48:32.097Z,97976.78
2023-03-25T18:51:00.817Z,97973.66
2023-03-25T18:53:29.435Z,97980.63
2023-03-25T18:56:00.955Z,97989.00
2023-03-25T18:58:31.071Z,97992.88
2023-03-25T19:00:59.138Z,97995.25
2023-03-25T19:03:38.785Z,97991.13
2023-03-25T19:06:09.601Z,97973.09
2023-03-25T19:08:36.924Z,97968.16
2023-03-25T19:11:19.199Z,97976.94
2023-03-25T19:13:48.564Z,97980.41
2023-03-25T19:16:15.532Z,97981.16
2023-03-25T19:18:42.244Z,97982.53
2023-03-25T19:21:10.462Z,97990.78
2023-03-25T19:23:37.615Z,97982.63
2023-03-25T19:26:04.542Z,97986.19
2023-03-25T19:28:31.336Z,97973.84
2023-03-25T19:31:00.505Z,97987.44
2023-03-25T19:33:31.155Z,97977.09
2023-03-25T19:36:01.252Z,97978.53
2023-03-25T19:38:30.123Z,97971.09
2023-03-25T19:41:02.918Z,97966.81
2023-03-25T19:43:29.681Z,97964.19
2023-03-25T19:45:57.363Z,97954.03
2023-03-25T19:48:24.112Z,97946.34
2023-03-25T19:50:54.182Z,97943.84
2023-03-25T19:53:21.366Z,97952.25
2023-03-25T19:55:48.372Z,97954.91
2023-03-25T19:58:15.092Z,97950.41
2023-03-25T20:00:42.110Z,97946.78
2023-03-25T20:03:08.860Z,97957.06
2023-03-25T20:05:36.699Z,97957.47
2023-03-25T20:08:04.258Z,97952.84
2023-03-25T20:10:31.525Z,97949.78
2023-03-25T20:12:59.951Z,97948.75
2023-03-25T20:15:27.207Z,97945.97
2023-03-25T20:17:55.512Z,97964.50
2023-03-25T20:20:24.751Z,97966.47
2023-03-25T20:22:51.999Z,97962.72
2023-03-25T20:25:19.320Z,97960.34
2023-03-25T20:27:46.282Z,97956.97
2023-03-25T20:30:15.937Z,97956.50
2023-03-25T20:32:44.998Z,97950.75
2023-03-25T20:35:15.061Z,97949.53
2023-03-25T20:37:43.232Z,97954.16
2023-03-25T20:40:15.292Z,97949.88
2023-03-25T20:42:43.648Z,97940.03
2023-03-25T20:45:13.676Z,97946.50
2023-03-25T20:47:41.611Z,97943.84
2023-03-25T20:50:11.264Z,97943.47
2023-03-25T20:52:38.060Z,97936.25
2023-03-25T20:55:05.752Z,97950.34
2023-03-25T20:57:32.926Z,97942.09
2023-03-25T20:59:59.577Z,97955.69
2023-03-25T21:02:27.047Z,97941.47
2023-03-25T21:04:56.768Z,97943.69
2023-03-25T21:07:31.609Z,97946.91
2023-03-25T21:09:58.852Z,97940.63
2023-03-25T21:12:36.321Z,97939.47
2023-03-25T21:15:09.174Z,97938.41
2023-03-25T21:17:37.047Z,97945.97
2023-03-25T21:20:07.742Z,97946.66
2023-03-25T21:22:34.994Z,97961.47
2023-03-25T21:25:01.681Z,97968.38
2023-03-25T21:27:39.561Z,97954.44
2023-03-25T21:30:09.522Z,97965.00
2023-03-25T21:32:39.666Z,97943.69
2023-03-25T21:35:07.818Z,97938.16
2023-03-25T21:37:37.887Z,97935.28
2023-03-25T21:40:08.395Z,97934.22
2023-03-25T21:42:38.197Z,97927.38
2023-03-25T21:45:07.550Z,97930.28
2023-03-25T21:47:35.943Z,97919.69
2023-03-25T21:50:06.122Z,97915.84
2023-03-25T21:52:32.900Z,97908.00
2023-03-25T21:54:59.521Z,97918.72
2023-03-25T21:57:26.601Z,97910.84
2023-03-25T21:59:56.202Z,97915.06
2023-03-25T22:02:23.041Z,97926.25
2023-03-25T22:04:49.770Z,97921.50
2023-03-25T22:07:16.420Z,97919.22
2023-03-25T22:09:43.251Z,97913.44
2023-03-25T22:12:09.886Z,97922.78
2023-03-25T22:14:36.748Z,97921.97
2023-03-25T22:17:03.553Z,97924.44
2023-03-25T22:19:31.247Z,97919.09
2023-03-25T22:21:57.979Z,97917.50
2023-03-25T22:24:24.647Z,97924.53
2023-03-25T22:26:51.398Z,97920.25
2023-03-25T22:29:18.018Z,97924.25
2023-03-25T22:31:44.659Z,97927.06
2023-03-25T22:34:14.973Z,97922.72
2023-03-25T22:36:49.382Z,97923.84
2023-03-25T22:39:18.311Z,97931.34
2023-03-25T22:41:46.055Z,97928.97
2023-03-25T22:44:14.874Z,97931.63
2023-03-25T22:46:41.707Z,97919.88
2023-03-25T22:49:08.371Z,97925.50
2023-03-25T22:51:35.336Z,97923.44
2023-03-25T22:54:02.027Z,97929.69
2023-03-25T22:56:33.686Z,97931.34
2023-03-25T22:59:01.773Z,97919.16
2023-03-25T23:01:29.121Z,97919.84
2023-03-25T23:03:57.463Z,97908.84
2023-03-25T23:06:25.553Z,97915.13
2023-03-25T23:08:55.245Z,97914.00
2023-03-25T23:11:25.329Z,97900.94
2023-03-25T23:14:05.910Z,97917.91
2023-03-25T23:16:36.759Z,97904.22
2023-03-25T23:19:06.619Z,97904.59
2023-03-25T23:21:34.406Z,97901.22
2023-03-25T23:24:03.223Z,97902.13
2023-03-25T23:26:37.323Z,97900.19
2023-03-25T23:29:05.993Z,97907.19
2023-03-25T23:31:34.471Z,97899.16
2023-03-25T23:34:04.132Z,97903.16
2023-03-25T23:36:34.094Z,97888.41
2023-03-25T23:39:02.100Z,97894.50
2023-03-25T23:41:29.428Z,97896.22
2023-03-25T23:43:56.193Z,97892.72
2023-03-25T23:46:24.436Z,97890.63
2023-03-25T23:48:54.700Z,97893.22
2023-03-25T23:51:25.332Z,97886.06
2023-03-25T23:53:52.967Z,97885.19
2023-03-25T23:56:22.024Z,97881.28
2023-03-25T23:58:49.125Z,97886.53
